createdAt,value
2019-02-07T00:00:46.283Z,8.30
2019-02-07T00:03:15.972Z,9.63
2019-02-07T00:05:45.778Z,9.00
2019-02-07T00:08:15.510Z,8.23
2019-02-07T00:13:46.988Z,9.00
2019-02-07T00:16:16.508Z,7.93
2019-02-07T00:18:46.087Z,8.55
2019-02-07T00:21:15.607Z,8.83
2019-02-07T00:26:39.023Z,9.15
2019-02-07T00:29:08.714Z,9.90
2019-02-07T00:31:38.278Z,10.40
2019-02-07T00:34:07.930Z,8.73
2019-02-07T00:36:37.498Z,10.67
2019-02-07T00:39:48.074Z,9.68
2019-02-07T00:42:19.300Z,8.80
2019-02-07T00:44:51.868Z,9.97
2019-02-07T00:47:39.416Z,8.03
2019-02-07T00:50:14.990Z,8.57
2019-02-07T00:58:28.544Z,7.77
2019-02-07T01:00:58.260Z,8.54
2019-02-07T01:03:27.945Z,9.27
2019-02-07T01:05:57.670Z,7.30
2019-02-07T01:08:27.261Z,8.53
2019-02-07T01:10:56.943Z,8.80
2019-02-07T01:16:15.337Z,9.17
2019-02-07T01:18:44.937Z,9.80
2019-02-07T01:21:14.449Z,10.10
2019-02-07T01:23:44.391Z,9.70
2019-02-07T01:26:14.313Z,9.50
2019-02-07T01:28:43.997Z,9.40
2019-02-07T01:31:13.661Z,8.60
2019-02-07T01:33:43.618Z,9.60
2019-02-07T01:36:13.465Z,9.07
2019-02-07T01:38:43.541Z,9.53
2019-02-07T01:41:13.667Z,8.18
2019-02-07T01:43:43.913Z,8.48
2019-02-07T01:46:13.818Z,10.30
2019-02-07T01:48:43.699Z,9.13
2019-02-07T01:51:13.636Z,10.15
2019-02-07T01:53:43.744Z,9.50
2019-02-07T01:56:13.646Z,7.10
2019-02-07T01:58:43.588Z,7.95
2019-02-07T02:03:54.991Z,8.15
2019-02-07T02:06:24.603Z,8.96
2019-02-07T02:09:01.642Z,8.40
2019-02-07T02:11:32.800Z,8.90
2019-02-07T02:14:02.291Z,8.53
2019-02-07T02:16:31.780Z,9.70
2019-02-07T02:19:01.334Z,9.23
2019-02-07T02:21:41.832Z,9.50
2019-02-07T02:24:11.461Z,8.47
2019-02-07T02:26:40.964Z,7.80
2019-02-07T02:29:10.730Z,10.40
2019-02-07T02:31:40.282Z,8.30
2019-02-07T02:34:30.654Z,8.63
2019-02-07T02:37:06.254Z,9.40
2019-02-07T02:39:35.761Z,9.07
2019-02-07T02:42:05.371Z,9.40
2019-02-07T02:44:42.174Z,7.80
2019-02-07T02:47:11.962Z,7.72
2019-02-07T02:49:41.524Z,9.00
2019-02-07T02:52:11.295Z,8.27
2019-02-07T02:54:44.489Z,9.08
2019-02-07T02:57:14.371Z,9.53
2019-02-07T02:59:44.292Z,8.43
2019-02-07T03:02:32.995Z,8.80
2019-02-07T03:05:10.673Z,8.57
2019-02-07T03:07:59.304Z,8.80
2019-02-07T03:10:37.924Z,9.38
2019-02-07T03:13:26.579Z,8.23
2019-02-07T03:16:15.430Z,8.80
2019-02-07T03:19:04.063Z,7.70
2019-02-07T03:21:52.561Z,8.43
2019-02-07T03:24:41.216Z,8.18
2019-02-07T03:27:29.735Z,9.27
2019-02-07T03:30:18.352Z,9.05
2019-02-07T03:33:07.114Z,7.28
2019-02-07T03:35:55.802Z,9.20
2019-02-07T03:38:44.341Z,8.23
2019-02-07T03:41:33.202Z,9.90
2019-02-07T03:44:21.845Z,7.63
2019-02-07T03:47:10.394Z,7.73
2019-02-07T03:49:59.013Z,8.00
2019-02-07T03:52:47.555Z,8.13
2019-02-07T03:55:36.134Z,8.65
2019-02-07T03:58:24.946Z,8.27
2019-02-07T04:01:13.638Z,9.50
2019-02-07T04:04:03.204Z,10.18
2019-02-07T04:07:03.623Z,7.70
2019-02-07T04:09:52.401Z,8.90
2019-02-07T04:12:40.953Z,9.47
2019-02-07T04:15:29.588Z,8.90
2019-02-07T04:18:18.100Z,9.25
2019-02-07T04:21:06.636Z,9.27
2019-02-07T04:23:55.191Z,8.28
2019-02-07T04:26:43.767Z,9.47
2019-02-07T04:29:20.251Z,9.33
2019-02-07T04:32:08.792Z,10.27
2019-02-07T04:34:57.333Z,9.10
2019-02-07T04:37:45.840Z,9.68
2019-02-07T04:40:34.400Z,10.03
2019-02-07T04:46:27.374Z,10.10
2019-02-07T04:49:21.764Z,9.30
2019-02-07T04:52:10.448Z,7.60
2019-02-07T04:54:59.158Z,8.87
2019-02-07T05:03:46.473Z,9.73
2019-02-07T05:06:35.076Z,8.70
2019-02-07T05:09:44.465Z,8.60
2019-02-07T05:12:33.083Z,10.83
2019-02-07T05:15:21.664Z,9.87
2019-02-07T05:18:10.286Z,9.28
2019-02-07T05:20:59.043Z,8.53
2019-02-07T05:23:40.547Z,8.50
2019-02-07T05:26:29.348Z,8.50
2019-02-07T05:29:17.898Z,9.93
2019-02-07T05:32:06.975Z,9.60
2019-02-07T05:34:55.621Z,8.63
2019-02-07T05:37:44.153Z,8.63
2019-02-07T05:40:32.974Z,9.87
2019-02-07T05:46:26.802Z,7.13
2019-02-07T05:49:15.436Z,9.03
2019-02-07T05:52:04.074Z,9.25
2019-02-07T05:54:52.757Z,9.10
2019-02-07T05:57:29.712Z,10.18
2019-02-07T06:00:18.472Z,8.70
2019-02-07T06:03:07.057Z,9.73
2019-02-07T06:05:55.580Z,10.30
2019-02-07T06:08:44.150Z,8.00
2019-02-07T06:11:33.153Z,9.43
2019-02-07T06:17:03.277Z,8.80
2019-02-07T06:19:49.348Z,8.77
2019-02-07T06:22:38.095Z,8.63
2019-02-07T06:25:27.323Z,9.13
2019-02-07T06:28:16.534Z,9.00
2019-02-07T06:31:24.727Z,9.77
2019-02-07T06:34:13.583Z,7.67
2019-02-07T06:36:51.726Z,8.60
2019-02-07T06:39:40.278Z,8.18
2019-02-07T06:42:28.977Z,7.33
2019-02-07T06:45:17.537Z,8.63
2019-02-07T06:47:54.479Z,8.35
2019-02-07T06:50:30.608Z,9.55
2019-02-07T06:53:19.147Z,8.23
2019-02-07T06:56:07.787Z,8.60
2019-02-07T06:58:56.398Z,7.83
2019-02-07T07:01:44.894Z,9.35
2019-02-07T07:04:33.514Z,9.07
2019-02-07T07:07:22.084Z,9.30
2019-02-07T07:10:10.657Z,9.43
2019-02-07T07:12:59.278Z,8.13
2019-02-07T07:15:48.253Z,9.17
2019-02-07T07:18:36.923Z,8.08
2019-02-07T07:21:25.628Z,10.47
2019-02-07T07:24:14.286Z,10.30
2019-02-07T07:27:02.974Z,9.80
2019-02-07T07:29:51.586Z,8.60
2019-02-07T07:32:40.273Z,8.10
2019-02-07T07:35:29.630Z,10.97
2019-02-07T07:38:19.948Z,9.70
2019-02-07T07:41:08.457Z,9.97
2019-02-07T07:43:57.055Z,9.43
2019-02-07T07:46:45.744Z,10.03
2019-02-07T07:49:34.351Z,9.83
2019-02-07T07:55:25.695Z,10.10
2019-02-07T07:58:14.477Z,9.38
2019-02-07T08:01:02.999Z,10.03
2019-02-07T08:03:51.641Z,8.73
2019-02-07T08:06:40.177Z,9.97
2019-02-07T08:09:50.849Z,8.53
2019-02-07T08:12:39.521Z,8.33
2019-02-07T08:18:32.566Z,10.50
2019-02-07T08:24:02.749Z,9.13
2019-02-07T08:26:53.104Z,11.27
2019-02-07T08:29:41.899Z,9.00
2019-02-07T08:32:30.583Z,9.00
2019-02-07T08:35:19.139Z,9.10
2019-02-07T08:38:26.959Z,10.00
2019-02-07T08:41:15.534Z,9.83
2019-02-07T08:44:13.989Z,10.50
2019-02-07T08:47:07.360Z,9.40
2019-02-07T08:50:08.079Z,9.30
2019-02-07T08:52:56.963Z,10.53
2019-02-07T08:55:45.524Z,10.97
2019-02-07T08:58:34.485Z,10.33
2019-02-07T09:01:23.271Z,10.70
2019-02-07T09:04:12.124Z,9.90
2019-02-07T09:07:20.324Z,10.07
2019-02-07T09:09:59.864Z,12.57
2019-02-07T09:12:42.515Z,11.00
2019-02-07T09:18:33.300Z,10.45
2019-02-07T09:21:21.952Z,11.83
2019-02-07T09:24:02.652Z,10.23
2019-02-07T09:26:51.241Z,10.40
2019-02-07T09:29:39.861Z,10.63
2019-02-07T09:32:28.399Z,11.20
2019-02-07T09:35:17.172Z,10.95
2019-02-07T09:38:05.918Z,11.33
2019-02-07T09:40:54.460Z,10.90
2019-02-07T09:43:43.406Z,11.27
2019-02-07T09:46:32.165Z,8.93
2019-02-07T09:49:20.830Z,10.87
2019-02-07T09:51:55.966Z,11.17
2019-02-07T09:54:44.707Z,10.27
2019-02-07T09:57:33.489Z,11.00
2019-02-07T10:00:44.546Z,10.28
2019-02-07T10:03:33.160Z,10.95
2019-02-07T10:06:21.803Z,10.80
2019-02-07T10:09:11.473Z,13.23
2019-02-07T10:12:00.087Z,11.85
2019-02-07T10:14:54.220Z,10.23
2019-02-07T10:17:42.826Z,11.73
2019-02-07T10:20:21.555Z,11.10
2019-02-07T10:23:10.181Z,11.47
2019-02-07T10:25:58.773Z,11.10
2019-02-07T10:28:47.381Z,10.72
2019-02-07T10:31:35.155Z,10.87
2019-02-07T10:34:24.235Z,11.90
2019-02-07T10:37:24.818Z,12.40
2019-02-07T10:40:15.728Z,10.40
2019-02-07T10:43:04.414Z,11.03
2019-02-07T10:45:52.943Z,10.20
2019-02-07T10:48:54.621Z,10.87
2019-02-07T10:51:43.315Z,10.40
2019-02-07T10:54:31.983Z,10.27
2019-02-07T10:57:09.507Z,13.23
2019-02-07T10:59:58.375Z,10.48
2019-02-07T11:02:39.819Z,11.20
2019-02-07T11:05:47.545Z,10.03
2019-02-07T11:08:36.411Z,10.30
2019-02-07T11:11:24.987Z,12.40
2019-02-07T11:17:15.914Z,9.83
2019-02-07T11:20:04.446Z,10.37
2019-02-07T11:22:52.995Z,9.30
2019-02-07T11:25:41.765Z,10.08
2019-02-07T11:28:30.322Z,9.20
2019-02-07T11:31:18.864Z,11.50
2019-02-07T11:34:27.231Z,10.53
2019-02-07T11:43:02.936Z,11.18
2019-02-07T11:45:51.594Z,10.83
2019-02-07T11:48:40.142Z,11.60
2019-02-07T11:51:28.812Z,10.72
2019-02-07T11:54:29.392Z,11.07
2019-02-07T11:57:17.952Z,10.23
2019-02-07T12:00:06.730Z,11.23
2019-02-07T12:02:55.254Z,10.53
2019-02-07T12:05:34.031Z,10.13
2019-02-07T12:08:35.787Z,10.77
2019-02-07T12:11:24.822Z,9.83
2019-02-07T12:14:13.391Z,10.30
2019-02-07T12:17:01.971Z,10.97
2019-02-07T12:19:50.501Z,11.80
2019-02-07T12:22:28.552Z,10.10
2019-02-07T12:25:17.503Z,10.08
2019-02-07T12:28:06.090Z,9.78
2019-02-07T12:30:55.130Z,11.83
2019-02-07T12:34:03.193Z,10.80
2019-02-07T12:36:51.744Z,10.43
2019-02-07T12:39:40.363Z,9.63
2019-02-07T12:42:37.137Z,10.20
2019-02-07T12:48:28.443Z,8.30
2019-02-07T12:53:58.664Z,10.10
2019-02-07T12:56:35.935Z,9.53
2019-02-07T12:59:45.285Z,9.97
2019-02-07T13:02:34.033Z,10.70
2019-02-07T13:05:44.121Z,9.93
2019-02-07T13:08:32.730Z,8.53
2019-02-07T13:11:21.531Z,9.20
2019-02-07T13:14:17.780Z,9.00
2019-02-07T13:17:18.702Z,9.20
2019-02-07T13:19:55.147Z,8.95
2019-02-07T13:22:43.774Z,9.57
2019-02-07T13:25:34.062Z,8.50
2019-02-07T13:28:14.409Z,8.75
2019-02-07T13:31:03.421Z,8.93
2019-02-07T13:33:52.094Z,7.85
2019-02-07T13:36:40.749Z,8.40
2019-02-07T13:39:29.558Z,7.50
2019-02-07T13:42:30.255Z,6.92
2019-02-07T13:45:18.790Z,8.20
2019-02-07T13:48:07.357Z,8.33
2019-02-07T13:50:49.656Z,7.60
2019-02-07T13:53:38.216Z,8.43
2019-02-07T13:56:26.921Z,7.83
2019-02-07T13:59:15.478Z,8.23
2019-02-07T14:02:03.996Z,7.73
2019-02-07T14:04:40.750Z,7.90
2019-02-07T14:07:28.597Z,9.80
2019-02-07T14:10:17.258Z,8.07
2019-02-07T14:13:06.780Z,6.23
2019-02-07T14:15:43.323Z,6.63
2019-02-07T14:18:31.899Z,8.37
2019-02-07T14:21:11.172Z,6.92
2019-02-07T14:23:59.692Z,7.40
2019-02-07T14:26:48.353Z,7.47
2019-02-07T14:29:27.312Z,6.83
2019-02-07T14:32:15.966Z,7.20
2019-02-07T14:35:04.665Z,6.03
2019-02-07T14:37:46.193Z,7.60
2019-02-07T14:40:34.947Z,6.15
2019-02-07T14:43:23.833Z,6.00
2019-02-07T14:46:13.339Z,6.33
2019-02-07T14:48:45.197Z,7.83
2019-02-07T14:54:24.082Z,7.20
2019-02-07T14:56:54.658Z,6.40
2019-02-07T14:59:24.331Z,5.53
2019-02-07T15:01:54.052Z,6.33
2019-02-07T15:04:24.262Z,6.47
2019-02-07T15:07:14.702Z,6.10
2019-02-07T15:10:03.360Z,5.90
2019-02-07T15:15:21.785Z,6.53
2019-02-07T15:17:51.367Z,6.83
2019-02-07T15:23:02.558Z,6.90
2019-02-07T15:25:32.236Z,7.10
2019-02-07T15:28:01.840Z,6.37
2019-02-07T15:30:31.366Z,7.00
2019-02-07T15:33:00.950Z,7.43
2019-02-07T15:35:33.450Z,6.00
2019-02-07T15:38:03.034Z,6.80
2019-02-07T15:40:32.549Z,7.50
2019-02-07T15:43:02.160Z,7.00
2019-02-07T15:45:31.751Z,7.70
2019-02-07T15:51:02.321Z,6.53
2019-02-07T15:53:31.814Z,6.70
2019-02-07T15:56:01.399Z,6.97
2019-02-07T15:58:49.909Z,6.90
2019-02-07T16:01:38.642Z,5.83
2019-02-07T16:04:12.538Z,5.10
2019-02-07T16:06:49.604Z,6.47
2019-02-07T16:09:19.371Z,6.50
2019-02-07T16:11:51.738Z,7.03
2019-02-07T16:14:25.240Z,5.97
2019-02-07T16:16:54.774Z,5.60
2019-02-07T16:19:24.537Z,5.63
2019-02-07T16:21:54.509Z,6.72
2019-02-07T16:24:24.409Z,5.90
2019-02-07T16:26:54.597Z,7.15
2019-02-07T16:29:24.623Z,6.17
2019-02-07T16:32:15.102Z,6.17
2019-02-07T16:37:39.168Z,7.37
2019-02-07T16:40:09.715Z,7.10
2019-02-07T16:42:39.341Z,6.73
2019-02-07T16:45:12.026Z,9.00
2019-02-07T16:51:00.168Z,7.67
2019-02-07T16:56:19.330Z,6.83
2019-02-07T16:58:48.853Z,6.77
2019-02-07T17:01:18.472Z,6.03
2019-02-07T17:04:47.744Z,7.03
2019-02-07T17:07:17.330Z,7.07
2019-02-07T17:09:59.378Z,8.20
2019-02-07T17:18:04.473Z,7.40
2019-02-07T17:20:34.306Z,7.00
2019-02-07T17:23:03.873Z,7.77
2019-02-07T17:26:13.378Z,7.10
2019-02-07T17:28:42.904Z,7.50
2019-02-07T17:31:12.577Z,7.60
2019-02-07T17:33:42.256Z,7.50
2019-02-07T17:36:11.834Z,7.33
2019-02-07T17:38:41.846Z,8.37
2019-02-07T17:41:11.384Z,7.87
2019-02-07T17:43:41.397Z,7.90
2019-02-07T17:46:11.275Z,7.90
2019-02-07T17:48:40.902Z,7.53
2019-02-07T17:51:10.498Z,8.60
2019-02-07T17:53:40.101Z,8.87
2019-02-07T17:56:09.626Z,7.93
2019-02-07T17:58:39.714Z,7.50
2019-02-07T18:01:10.702Z,9.25
2019-02-07T18:03:40.269Z,8.58
2019-02-07T18:06:10.264Z,8.28
2019-02-07T18:08:40.047Z,7.90
2019-02-07T18:11:10.133Z,8.40
2019-02-07T18:13:39.849Z,8.20
2019-02-07T18:16:10.214Z,8.15
2019-02-07T18:18:40.149Z,7.60
2019-02-07T18:21:34.411Z,7.27
2019-02-07T18:24:06.315Z,7.67
2019-02-07T18:26:35.920Z,7.72
2019-02-07T18:29:05.753Z,7.40
2019-02-07T18:31:35.393Z,7.90
2019-02-07T18:34:05.370Z,7.67
2019-02-07T18:36:54.242Z,7.60
2019-02-07T18:39:23.759Z,8.00
2019-02-07T18:41:53.816Z,5.63
2019-02-07T18:44:23.429Z,5.33
2019-02-07T18:46:53.033Z,6.87
2019-02-07T18:49:41.693Z,6.70
2019-02-07T18:52:11.231Z,6.50
2019-02-07T18:57:42.964Z,5.65
2019-02-07T19:03:16.200Z,5.93
2019-02-07T19:05:45.908Z,6.15
2019-02-07T19:08:15.660Z,5.97
2019-02-07T19:10:45.476Z,6.60
2019-02-07T19:13:16.707Z,7.50
2019-02-07T19:16:07.968Z,5.70
2019-02-07T19:18:37.552Z,5.73
2019-02-07T19:21:07.210Z,4.97
2019-02-07T19:23:36.915Z,6.30
2019-02-07T19:26:06.553Z,5.80
2019-02-07T19:28:36.247Z,5.70
2019-02-07T19:33:54.492Z,5.00
2019-02-07T19:36:24.010Z,5.80
2019-02-07T19:38:53.518Z,5.37
2019-02-07T19:41:23.092Z,5.00
2019-02-07T19:44:12.026Z,6.27
2019-02-07T19:46:41.663Z,5.87
2019-02-07T19:49:11.210Z,4.67
2019-02-07T19:51:40.838Z,5.30
2019-02-07T19:54:10.309Z,5.45
2019-02-07T19:56:40.466Z,5.50
2019-02-07T19:59:10.530Z,5.50
2019-02-07T20:01:40.479Z,6.30
2019-02-07T20:04:10.454Z,5.20
2019-02-07T20:06:41.544Z,5.08
2019-02-07T20:09:31.179Z,5.20
2019-02-07T20:12:19.989Z,4.63
2019-02-07T20:14:49.732Z,5.17
2019-02-07T20:17:19.378Z,5.55
2019-02-07T20:20:10.651Z,5.85
2019-02-07T20:22:40.891Z,4.13
2019-02-07T20:25:11.431Z,5.35
2019-02-07T20:27:41.312Z,5.43
2019-02-07T20:30:31.615Z,5.00
2019-02-07T20:33:01.367Z,5.50
2019-02-07T20:35:32.816Z,5.07
2019-02-07T20:43:38.144Z,4.70
2019-02-07T20:46:07.793Z,5.00
2019-02-07T20:48:37.797Z,6.15
2019-02-07T20:51:07.304Z,5.67
2019-02-07T20:53:37.048Z,6.50
2019-02-07T20:56:06.734Z,5.93
2019-02-07T20:58:36.400Z,4.80
2019-02-07T21:01:05.910Z,6.00
2019-02-07T21:03:35.517Z,5.30
2019-02-07T21:06:05.382Z,5.60
2019-02-07T21:08:35.079Z,6.75
2019-02-07T21:11:23.873Z,5.30
2019-02-07T21:13:53.472Z,5.63
2019-02-07T21:16:22.951Z,5.50
2019-02-07T21:18:52.649Z,7.47
2019-02-07T21:21:22.172Z,5.07
2019-02-07T21:23:51.786Z,5.90
2019-02-07T21:26:21.380Z,6.13
2019-02-07T21:28:51.010Z,5.15
2019-02-07T21:31:20.529Z,5.20
2019-02-07T21:33:50.135Z,5.33
2019-02-07T21:36:19.784Z,5.20
2019-02-07T21:38:49.319Z,5.23
2019-02-07T21:41:18.993Z,4.80
2019-02-07T21:43:49.034Z,4.30
2019-02-07T21:46:18.606Z,4.13
2019-02-07T21:48:48.185Z,4.97
2019-02-07T21:51:17.875Z,6.00
2019-02-07T21:53:47.463Z,4.10
2019-02-07T21:56:18.644Z,5.60
2019-02-07T21:58:48.180Z,5.33
2019-02-07T22:01:17.896Z,3.63
2019-02-07T22:03:47.470Z,4.60
2019-02-07T22:06:17.273Z,3.87
2019-02-07T22:08:46.860Z,4.20
2019-02-07T22:14:19.036Z,3.00
2019-02-07T22:16:48.625Z,3.03
2019-02-07T22:19:18.132Z,3.27
2019-02-07T22:21:47.704Z,3.08
2019-02-07T22:24:17.199Z,4.20
2019-02-07T22:26:46.717Z,2.30
2019-02-07T22:29:16.470Z,3.00
2019-02-07T22:32:16.894Z,3.37
2019-02-07T22:34:47.518Z,3.43
2019-02-07T22:37:17.093Z,3.30
2019-02-07T22:39:46.720Z,2.90
2019-02-07T22:42:16.212Z,2.40
2019-02-07T22:44:45.713Z,1.67
2019-02-07T22:47:15.246Z,2.00
2019-02-07T22:49:44.777Z,2.12
2019-02-07T22:52:14.259Z,2.20
2019-02-07T22:54:43.834Z,1.80
2019-02-07T22:57:13.323Z,2.30
2019-02-07T22:59:42.929Z,2.13
2019-02-07T23:02:12.601Z,1.97
2019-02-07T23:04:42.165Z,2.15
2019-02-07T23:07:11.707Z,1.80
2019-02-07T23:09:41.273Z,2.00
2019-02-07T23:12:10.835Z,2.30
2019-02-07T23:14:40.433Z,1.90
2019-02-07T23:17:10.138Z,2.30
2019-02-07T23:19:39.767Z,2.60
2019-02-07T23:22:09.309Z,2.10
2019-02-07T23:24:38.916Z,2.40
2019-02-07T23:27:08.472Z,2.40
2019-02-07T23:29:37.982Z,2.80
2019-02-07T23:32:07.548Z,2.30
2019-02-07T23:34:37.052Z,2.80
2019-02-07T23:37:06.536Z,2.53
2019-02-07T23:39:36.054Z,2.17
2019-02-07T23:42:05.921Z,2.50
2019-02-07T23:44:56.301Z,2.27
2019-02-07T23:47:25.992Z,2.03
2019-02-07T23:49:55.622Z,2.00
2019-02-07T23:52:25.177Z,2.33
2019-02-07T23:54:54.674Z,2.40
2019-02-07T23:57:24.227Z,2.70
2019-02-07T23:59:53.713Z,3.00
